Time;durP1;ratioP1;P1;durP2;ratioP2;P2;SDS_P1;SDS_P2;PMS_P1;PMS_P2;Temp;Humidity;BMP_temperature;BMP_pressure;BME280_temperature;BME280_humidity;BME280_pressure;Samples;Min_cycle;Max_cycle;Signal;HPM_P1;HPM_P2
2022/01/14 00:01:37;;;;;;;;;;;20.00;42.10;;;;;;5102390;27;20045;-45
2022/01/14 00:04:04;;;;;;;;;;;20.00;42.10;;;;;;5113008;27;19930;-46
2022/01/14 00:06:31;;;;;;;;;;;20.00;42.00;;;;;;5117936;27;19992;-45
2022/01/14 00:09:06;;;;;;;;;;;20.00;42.00;;;;;;5114673;27;19963;-49
2022/01/14 00:11:33;;;;;;;;;;;20.00;42.10;;;;;;5130456;27;19930;-45
2022/01/14 00:14:09;;;;;;;;;;;20.00;42.10;;;;;;5113062;27;20187;-46
2022/01/14 00:16:36;;;;;;;;;;;20.00;42.10;;;;;;5147068;27;19931;-48
2022/01/14 00:19:03;;;;;;;;;;;20.00;42.10;;;;;;5114076;27;19980;-48
2022/01/14 00:21:32;;;;;;;;;;;20.00;42.10;;;;;;5115924;27;20296;-49
2022/01/14 00:24:09;;;;;;;;;;;20.00;42.10;;;;;;5112798;27;19923;-51
2022/01/14 00:32:17;;;;;;;;;;;20.00;42.10;;;;;;5070892;27;19923;-54
2022/01/14 00:34:43;;;;;;;;;;;20.00;42.10;;;;;;5112775;27;19931;-51
2022/01/14 00:37:10;;;;;;;;;;;20.00;42.10;;;;;;5117202;27;19994;-48
2022/01/14 00:39:38;;;;;;;;;;;20.00;42.10;;;;;;5115537;27;19972;-49
2022/01/14 00:42:06;;;;;;;;;;;20.00;42.10;;;;;;5109981;27;19919;-54
2022/01/14 00:44:32;;;;;;;;;;;20.00;42.10;;;;;;5108949;27;19972;-48
2022/01/14 00:46:59;;;;;;;;;;;20.00;42.10;;;;;;5111822;27;20054;-46
2022/01/14 00:49:28;;;;;;;;;;;20.00;42.10;;;;;;5111729;27;19924;-54
2022/01/14 00:51:55;;;;;;;;;;;20.00;42.20;;;;;;5126434;27;19987;-46
2022/01/14 00:54:24;;;;;;;;;;;20.00;42.10;;;;;;5114181;27;20424;-51
2022/01/14 00:57:13;;;;;;;;;;;20.00;42.10;;;;;;5145155;27;19927;-50
2022/01/14 00:59:39;;;;;;;;;;;20.00;42.20;;;;;;5109169;27;20381;-54
2022/01/14 01:02:05;;;;;;;;;;;20.00;42.10;;;;;;5114721;27;20392;-47
2022/01/14 01:04:35;;;;;;;;;;;20.00;42.10;;;;;;5113848;27;20414;-52
2022/01/14 01:07:02;;;;;;;;;;;20.00;42.20;;;;;;5108834;27;19927;-53
2022/01/14 01:09:30;;;;;;;;;;;20.00;42.20;;;;;;5132021;27;19927;-48
2022/01/14 01:12:09;;;;;;;;;;;20.00;42.10;;;;;;5113253;27;19976;-47
2022/01/14 01:14:42;;;;;;;;;;;20.00;42.10;;;;;;5118809;27;19924;-47
2022/01/14 01:17:09;;;;;;;;;;;20.00;42.10;;;;;;5118357;27;19949;-48
2022/01/14 01:19:38;;;;;;;;;;;20.00;42.20;;;;;;5113259;27;20034;-52
2022/01/14 01:22:05;;;;;;;;;;;20.00;42.20;;;;;;5114329;27;19929;-48
2022/01/14 01:24:32;;;;;;;;;;;20.00;42.10;;;;;;5110061;27;19932;-52
2022/01/14 01:27:05;;;;;;;;;;;20.00;42.20;;;;;;5117070;27;19998;-51
2022/01/14 01:29:47;;;;;;;;;;;20.00;42.20;;;;;;5114862;27;19923;-51
2022/01/14 01:32:14;;;;;;;;;;;20.00;42.10;;;;;;5111631;27;19987;-51
2022/01/14 01:34:41;;;;;;;;;;;20.00;42.20;;;;;;5112705;27;19928;-54
2022/01/14 01:37:08;;;;;;;;;;;20.00;42.10;;;;;;5114564;27;20509;-48
2022/01/14 01:39:35;;;;;;;;;;;20.00;42.10;;;;;;5108343;27;19932;-47
2022/01/14 01:42:05;;;;;;;;;;;20.00;42.10;;;;;;5116219;27;19960;-47
2022/01/14 01:44:31;;;;;;;;;;;20.00;42.20;;;;;;5123971;27;19923;-51
2022/01/14 01:46:58;;;;;;;;;;;20.00;42.20;;;;;;5115106;27;19949;-48
2022/01/14 01:49:25;;;;;;;;;;;20.00;42.20;;;;;;5112689;27;19967;-46
2022/01/14 01:51:57;;;;;;;;;;;20.00;42.20;;;;;;5113680;27;21326;-48
2022/01/14 01:54:25;;;;;;;;;;;20.00;42.20;;;;;;5103732;27;20017;-51
2022/01/14 01:56:52;;;;;;;;;;;20.00;42.20;;;;;;5113986;27;19928;-49
2022/01/14 01:59:23;;;;;;;;;;;20.00;42.20;;;;;;5134122;27;19931;-51
2022/01/14 02:01:49;;;;;;;;;;;20.00;42.20;;;;;;5112867;27;19941;-48
2022/01/14 02:04:16;;;;;;;;;;;20.00;42.20;;;;;;5118361;27;19981;-49
2022/01/14 02:06:43;;;;;;;;;;;20.00;42.20;;;;;;5114673;27;19972;-50
2022/01/14 02:09:12;;;;;;;;;;;20.00;42.20;;;;;;5114704;27;19919;-54
2022/01/14 02:11:39;;;;;;;;;;;20.00;42.20;;;;;;5130803;27;20015;-45
2022/01/14 02:14:14;;;;;;;;;;;20.00;42.20;;;;;;5136951;27;20557;-52
2022/01/14 02:22:09;;;;;;;;;;;20.00;42.20;;;;;;5087344;28;20301;-54
2022/01/14 02:22:46;;;;;;;;;;;20.00;42.20;;;;;;5092297;28;19980;-45
2022/01/14 02:25:16;;;;;;;;;;;20.00;42.20;;;;;;5099378;27;19923;-48
2022/01/14 02:27:43;;;;;;;;;;;20.00;42.20;;;;;;5113836;27;19931;-50
2022/01/14 02:30:10;;;;;;;;;;;20.00;42.20;;;;;;5114324;27;19924;-48
2022/01/14 02:32:39;;;;;;;;;;;20.00;42.20;;;;;;5111836;27;19923;-45
2022/01/14 02:35:07;;;;;;;;;;;20.00;42.20;;;;;;5130597;27;19923;-54
2022/01/14 02:37:34;;;;;;;;;;;20.00;42.20;;;;;;5114703;27;19923;-48
2022/01/14 02:40:03;;;;;;;;;;;20.00;42.20;;;;;;5113959;27;20006;-50
2022/01/14 02:42:29;;;;;;;;;;;20.00;42.20;;;;;;5114056;27;19923;-49
2022/01/14 02:45:02;;;;;;;;;;;20.00;42.20;;;;;;5121920;27;19956;-54
2022/01/14 02:47:29;;;;;;;;;;;20.00;42.20;;;;;;5128493;27;19923;-48
2022/01/14 02:49:56;;;;;;;;;;;20.00;42.20;;;;;;5114808;28;20322;-51
2022/01/14 02:52:28;;;;;;;;;;;20.00;42.20;;;;;;5112723;28;19919;-48
2022/01/14 02:55:14;;;;;;;;;;;20.00;42.20;;;;;;5111781;28;19927;-50
2022/01/14 02:57:43;;;;;;;;;;;20.00;42.20;;;;;;5122049;28;19931;-47
2022/01/14 03:00:10;;;;;;;;;;;20.00;42.20;;;;;;5112633;28;19967;-49
2022/01/14 03:02:37;;;;;;;;;;;20.00;42.20;;;;;;5127779;28;19931;-50
2022/01/14 03:05:04;;;;;;;;;;;20.00;42.20;;;;;;5112415;28;19970;-50
2022/01/14 03:07:31;;;;;;;;;;;20.00;42.20;;;;;;5111517;28;19972;-49
2022/01/14 03:09:58;;;;;;;;;;;20.00;42.20;;;;;;5129688;27;19928;-47
2022/01/14 03:12:24;;;;;;;;;;;20.00;42.20;;;;;;5106198;28;19930;-48
2022/01/14 03:14:55;;;;;;;;;;;20.00;42.20;;;;;;5099021;28;19924;-47
2022/01/14 03:17:22;;;;;;;;;;;20.00;42.20;;;;;;5132401;28;19924;-54
2022/01/14 03:19:52;;;;;;;;;;;20.00;42.20;;;;;;5105269;27;19924;-48
2022/01/14 03:22:22;;;;;;;;;;;20.00;42.70;;;;;;5114502;27;19930;-53
2022/01/14 03:27:33;;;;;;;;;;;20.00;42.10;;;;;;5129577;27;20380;-46
2022/01/14 03:30:02;;;;;;;;;;;20.00;42.10;;;;;;5116945;27;19928;-53
2022/01/14 03:32:31;;;;;;;;;;;20.00;42.10;;;;;;5116322;27;19923;-46
2022/01/14 03:34:58;;;;;;;;;;;20.00;42.10;;;;;;5120160;27;19928;-49
2022/01/14 03:37:25;;;;;;;;;;;20.00;42.20;;;;;;5114135;27;19993;-50
2022/01/14 03:39:51;;;;;;;;;;;20.00;42.20;;;;;;5113875;27;20451;-48
2022/01/14 03:42:18;;;;;;;;;;;20.00;42.20;;;;;;5148384;27;20519;-52
2022/01/14 03:44:45;;;;;;;;;;;20.00;42.20;;;;;;5113373;27;19923;-50
2022/01/14 03:47:13;;;;;;;;;;;20.00;42.20;;;;;;5111063;27;19949;-50
2022/01/14 03:49:40;;;;;;;;;;;20.00;42.20;;;;;;5117727;27;19931;-47
2022/01/14 03:52:07;;;;;;;;;;;20.00;42.20;;;;;;5116003;27;19923;-47
2022/01/14 03:54:34;;;;;;;;;;;20.00;42.20;;;;;;5133368;27;20241;-51
2022/01/14 03:57:01;;;;;;;;;;;20.00;42.20;;;;;;5112027;27;20341;-54
2022/01/14 03:59:28;;;;;;;;;;;20.00;42.20;;;;;;5116182;27;20473;-50
2022/01/14 04:01:55;;;;;;;;;;;20.00;42.20;;;;;;5116902;27;19998;-53
2022/01/14 04:04:23;;;;;;;;;;;20.00;42.20;;;;;;5123914;27;19959;-51
2022/01/14 04:06:50;;;;;;;;;;;20.00;42.20;;;;;;5113486;27;19987;-47
2022/01/14 04:09:16;;;;;;;;;;;20.00;42.20;;;;;;5111060;27;19935;-52
2022/01/14 04:11:45;;;;;;;;;;;20.00;42.20;;;;;;5119922;27;20323;-50
2022/01/14 04:16:52;;;;;;;;;;;20.00;42.20;;;;;;5122246;27;19923;-47
2022/01/14 04:19:19;;;;;;;;;;;20.00;42.20;;;;;;5115006;27;20126;-47
2022/01/14 04:21:47;;;;;;;;;;;20.00;42.20;;;;;;5118152;27;19931;-51
2022/01/14 04:24:15;;;;;;;;;;;20.00;42.20;;;;;;5114574;27;20010;-48
2022/01/14 04:26:42;;;;;;;;;;;20.00;42.20;;;;;;5124970;27;19934;-52
2022/01/14 04:29:08;;;;;;;;;;;20.00;42.20;;;;;;5134651;27;19927;-50
2022/01/14 04:31:35;;;;;;;;;;;20.00;42.20;;;;;;5116069;27;19977;-47
2022/01/14 04:34:02;;;;;;;;;;;20.00;42.20;;;;;;5149926;27;19927;-48
2022/01/14 04:36:29;;;;;;;;;;;20.00;42.20;;;;;;5115878;27;20271;-45
2022/01/14 04:38:58;;;;;;;;;;;20.00;42.20;;;;;;5114983;27;19927;-45
2022/01/14 04:41:25;;;;;;;;;;;20.00;42.20;;;;;;5134056;27;19931;-47
2022/01/14 04:43:52;;;;;;;;;;;20.00;42.20;;;;;;5134238;27;19953;-49
2022/01/14 04:49:06;;;;;;;;;;;20.00;42.20;;;;;;5092345;27;19935;-48
2022/01/14 04:51:37;;;;;;;;;;;20.00;42.20;;;;;;5114639;27;19928;-47
2022/01/14 04:54:05;;;;;;;;;;;20.00;42.10;;;;;;5114612;27;19928;-47
2022/01/14 04:56:32;;;;;;;;;;;20.00;42.10;;;;;;5117297;27;19976;-50
2022/01/14 04:58:59;;;;;;;;;;;20.00;42.10;;;;;;5129678;27;20324;-47
2022/01/14 05:01:26;;;;;;;;;;;20.00;42.10;;;;;;5092829;27;20048;-46
2022/01/14 05:03:53;;;;;;;;;;;20.00;42.20;;;;;;5113467;27;19931;-51
2022/01/14 05:06:20;;;;;;;;;;;20.00;42.10;;;;;;5119401;27;19923;-44
2022/01/14 05:08:47;;;;;;;;;;;20.00;42.10;;;;;;5115455;27;19969;-51
2022/01/14 05:11:25;;;;;;;;;;;20.00;42.10;;;;;;5113025;27;19923;-45
2022/01/14 05:13:51;;;;;;;;;;;20.00;42.20;;;;;;5125537;27;19980;-48
2022/01/14 05:16:18;;;;;;;;;;;20.00;42.10;;;;;;5111167;27;20017;-46
2022/01/14 05:18:47;;;;;;;;;;;20.00;42.10;;;;;;5115089;27;19931;-48
2022/01/14 05:21:17;;;;;;;;;;;20.00;42.10;;;;;;5099242;27;20006;-51
2022/01/14 05:23:44;;;;;;;;;;;20.00;42.20;;;;;;5113709;27;20372;-46
2022/01/14 05:26:11;;;;;;;;;;;20.00;42.10;;;;;;5115081;27;20022;-48
2022/01/14 05:28:39;;;;;;;;;;;20.00;42.10;;;;;;5130591;27;19930;-46
2022/01/14 05:31:06;;;;;;;;;;;20.00;42.20;;;;;;5104160;27;20279;-45
2022/01/14 05:33:33;;;;;;;;;;;19.90;42.00;;;;;;5114213;27;19919;-53
2022/01/14 05:35:59;;;;;;;;;;;20.00;42.10;;;;;;5113378;27;19923;-48
2022/01/14 05:38:26;;;;;;;;;;;20.00;42.20;;;;;;5110838;27;19927;-50
2022/01/14 05:40:53;;;;;;;;;;;19.90;42.10;;;;;;5129639;27;19966;-50
2022/01/14 05:43:20;;;;;;;;;;;20.00;42.10;;;;;;5121254;27;19924;-49
2022/01/14 05:45:50;;;;;;;;;;;19.90;42.00;;;;;;5129625;27;20325;-50
2022/01/14 05:48:17;;;;;;;;;;;20.00;42.10;;;;;;5131479;27;20117;-50
2022/01/14 05:50:46;;;;;;;;;;;19.90;42.00;;;;;;5110738;27;19969;-49
2022/01/14 05:53:13;;;;;;;;;;;20.00;42.10;;;;;;5118076;27;19924;-47
2022/01/14 05:55:40;;;;;;;;;;;19.90;42.00;;;;;;5114575;27;19924;-49
2022/01/14 05:58:07;;;;;;;;;;;20.00;42.20;;;;;;5126447;27;19931;-52
2022/01/14 06:00:34;;;;;;;;;;;20.00;42.10;;;;;;5110007;27;19933;-50
2022/01/14 06:03:02;;;;;;;;;;;20.00;42.10;;;;;;5116507;27;19954;-46
2022/01/14 06:05:29;;;;;;;;;;;20.00;42.10;;;;;;5113382;27;20507;-47
2022/01/14 06:07:55;;;;;;;;;;;20.00;42.10;;;;;;5114278;27;19930;-47
2022/01/14 06:10:22;;;;;;;;;;;20.00;42.10;;;;;;5113584;27;19946;-50
2022/01/14 06:12:49;;;;;;;;;;;19.90;42.00;;;;;;5117702;27;19934;-49
2022/01/14 06:15:17;;;;;;;;;;;20.00;42.10;;;;;;5111445;27;19970;-48
2022/01/14 06:17:43;;;;;;;;;;;20.00;42.10;;;;;;5111757;27;19927;-52
2022/01/14 06:20:13;;;;;;;;;;;20.00;42.10;;;;;;5130716;27;19973;-50
2022/01/14 06:22:39;;;;;;;;;;;20.00;42.10;;;;;;5132469;27;19930;-48
2022/01/14 06:25:07;;;;;;;;;;;20.00;42.10;;;;;;5115899;27;20019;-53
2022/01/14 06:27:34;;;;;;;;;;;20.00;42.10;;;;;;5113627;27;19930;-51
2022/01/14 06:30:01;;;;;;;;;;;20.00;42.10;;;;;;5128128;27;19958;-44
2022/01/14 06:32:28;;;;;;;;;;;20.00;42.10;;;;;;5128753;27;19919;-52
2022/01/14 06:34:54;;;;;;;;;;;20.00;42.10;;;;;;5108588;27;19930;-47
2022/01/14 06:37:23;;;;;;;;;;;20.00;42.10;;;;;;5128489;27;20022;-49
2022/01/14 06:39:51;;;;;;;;;;;20.00;42.10;;;;;;5113614;27;20353;-49
2022/01/14 06:42:17;;;;;;;;;;;20.00;42.10;;;;;;5112501;28;19935;-49
2022/01/14 06:44:44;;;;;;;;;;;20.00;42.10;;;;;;5112983;28;19923;-49
2022/01/14 06:47:11;;;;;;;;;;;20.00;42.10;;;;;;5112664;27;20116;-48
2022/01/14 06:49:38;;;;;;;;;;;19.90;42.00;;;;;;5114571;28;20030;-48
2022/01/14 06:52:05;;;;;;;;;;;20.00;42.10;;;;;;5109524;28;19931;-50
2022/01/14 06:54:33;;;;;;;;;;;20.00;42.10;;;;;;5118864;27;19927;-53
2022/01/14 06:56:59;;;;;;;;;;;20.00;42.00;;;;;;5118599;27;19927;-46
2022/01/14 06:59:26;;;;;;;;;;;20.00;42.10;;;;;;5136235;27;19923;-47
2022/01/14 07:01:54;;;;;;;;;;;20.00;42.10;;;;;;5145065;27;19992;-49
2022/01/14 07:04:21;;;;;;;;;;;20.00;42.10;;;;;;5119639;27;19967;-54
2022/01/14 07:06:47;;;;;;;;;;;20.00;42.10;;;;;;5135571;27;19923;-48
2022/01/14 07:09:14;;;;;;;;;;;20.00;42.10;;;;;;5116017;27;19923;-46
2022/01/14 07:11:47;;;;;;;;;;;20.00;42.10;;;;;;5134744;27;19983;-52
2022/01/14 07:14:13;;;;;;;;;;;20.00;42.10;;;;;;5116483;27;19925;-49
2022/01/14 07:16:40;;;;;;;;;;;20.00;42.10;;;;;;5117922;27;20292;-48
2022/01/14 07:19:07;;;;;;;;;;;19.90;42.00;;;;;;5116200;27;19924;-48
2022/01/14 07:21:34;;;;;;;;;;;20.00;42.10;;;;;;5117240;27;19927;-48
2022/01/14 07:24:01;;;;;;;;;;;19.90;42.00;;;;;;5118012;27;19927;-50
2022/01/14 07:26:28;;;;;;;;;;;20.00;42.10;;;;;;5099534;27;19958;-50
2022/01/14 07:28:56;;;;;;;;;;;20.00;42.10;;;;;;5115797;27;20399;-54
2022/01/14 07:31:23;;;;;;;;;;;20.00;42.10;;;;;;5125724;27;19982;-51
2022/01/14 07:33:50;;;;;;;;;;;20.00;41.90;;;;;;5126089;27;19939;-55
2022/01/14 07:36:17;;;;;;;;;;;20.00;41.70;;;;;;5125999;27;19954;-55
2022/01/14 07:38:44;;;;;;;;;;;20.00;41.40;;;;;;5121532;27;19931;-57
2022/01/14 07:41:11;;;;;;;;;;;19.90;41.20;;;;;;5128427;27;19935;-55
2022/01/14 07:43:37;;;;;;;;;;;19.90;41.10;;;;;;5123740;27;19945;-53
2022/01/14 07:46:07;;;;;;;;;;;19.90;40.90;;;;;;5129956;27;19927;-59
2022/01/14 07:48:34;;;;;;;;;;;19.90;40.80;;;;;;5141891;27;19928;-58
2022/01/14 07:51:03;;;;;;;;;;;19.90;40.80;;;;;;5146431;27;19927;-54
2022/01/14 07:53:30;;;;;;;;;;;19.80;40.70;;;;;;5111391;27;19927;-55
2022/01/14 07:55:57;;;;;;;;;;;19.80;40.60;;;;;;5127924;27;20153;-55
2022/01/14 07:58:24;;;;;;;;;;;19.80;40.60;;;;;;5122326;27;19935;-57
2022/01/14 08:00:51;;;;;;;;;;;19.80;40.70;;;;;;5128242;27;19927;-55
2022/01/14 08:03:19;;;;;;;;;;;19.80;40.70;;;;;;5130107;27;19923;-57
2022/01/14 08:05:47;;;;;;;;;;;19.80;40.70;;;;;;5113427;27;19928;-53
2022/01/14 08:08:14;;;;;;;;;;;19.80;40.70;;;;;;5116518;27;19924;-57
2022/01/14 08:10:41;;;;;;;;;;;19.80;40.70;;;;;;5116726;27;19932;-56
2022/01/14 08:13:07;;;;;;;;;;;19.80;40.80;;;;;;5116030;27;20312;-54
2022/01/14 08:15:34;;;;;;;;;;;19.80;40.70;;;;;;5117314;27;19986;-54
2022/01/14 08:18:02;;;;;;;;;;;19.80;40.70;;;;;;5118776;27;19954;-55
2022/01/14 08:20:31;;;;;;;;;;;19.80;40.70;;;;;;5115354;27;19977;-54
2022/01/14 08:22:58;;;;;;;;;;;19.80;40.70;;;;;;5119175;27;19997;-55
2022/01/14 08:25:25;;;;;;;;;;;19.80;40.70;;;;;;5119798;27;19923;-50
2022/01/14 08:27:52;;;;;;;;;;;19.80;40.80;;;;;;5118396;27;19988;-51
2022/01/14 08:30:19;;;;;;;;;;;19.80;40.80;;;;;;5128656;27;19951;-52
2022/01/14 08:32:46;;;;;;;;;;;19.80;40.80;;;;;;5121339;27;19923;-58
2022/01/14 08:35:13;;;;;;;;;;;19.80;40.80;;;;;;5105075;27;19930;-58
2022/01/14 08:37:41;;;;;;;;;;;19.80;40.80;;;;;;5119874;27;19982;-55
2022/01/14 08:40:08;;;;;;;;;;;19.80;41.50;;;;;;5151423;27;19948;-54
2022/01/14 08:42:35;;;;;;;;;;;19.80;40.90;;;;;;5110938;27;19957;-54
2022/01/14 08:45:02;;;;;;;;;;;19.80;40.90;;;;;;5118961;27;19945;-55
2022/01/14 08:47:30;;;;;;;;;;;19.80;40.90;;;;;;5116706;27;19962;-58
2022/01/14 08:49:57;;;;;;;;;;;19.80;40.90;;;;;;5121687;27;19928;-57
2022/01/14 08:52:23;;;;;;;;;;;19.80;40.90;;;;;;5117918;27;19927;-54
2022/01/14 08:54:52;;;;;;;;;;;19.80;40.90;;;;;;5116726;27;19927;-54
2022/01/14 08:57:18;;;;;;;;;;;19.80;40.90;;;;;;5150922;27;20028;-56
2022/01/14 08:59:45;;;;;;;;;;;19.80;40.90;;;;;;5117553;27;19927;-56
2022/01/14 09:02:12;;;;;;;;;;;19.80;40.90;;;;;;5118396;27;19961;-54
2022/01/14 09:04:39;;;;;;;;;;;19.80;40.90;;;;;;5117455;28;19928;-55
2022/01/14 09:07:05;;;;;;;;;;;19.80;40.80;;;;;;5123911;27;19923;-55
2022/01/14 09:09:32;;;;;;;;;;;19.80;40.80;;;;;;5136580;27;19932;-55
2022/01/14 09:12:15;;;;;;;;;;;19.80;40.90;;;;;;5151911;27;20019;-57
2022/01/14 09:14:42;;;;;;;;;;;19.80;40.90;;;;;;5129454;27;19927;-58
2022/01/14 09:17:09;;;;;;;;;;;19.80;40.80;;;;;;5140233;27;19928;-56
2022/01/14 09:19:36;;;;;;;;;;;19.80;40.80;;;;;;5144431;27;19924;-54
2022/01/14 09:22:03;;;;;;;;;;;19.80;40.80;;;;;;5119845;27;19959;-57
2022/01/14 09:24:30;;;;;;;;;;;19.80;40.80;;;;;;5131162;27;20409;-54
2022/01/14 09:26:57;;;;;;;;;;;19.80;40.90;;;;;;5114985;27;20010;-50
2022/01/14 09:29:25;;;;;;;;;;;19.80;40.90;;;;;;5110202;27;20039;-49
2022/01/14 09:31:52;;;;;;;;;;;19.80;40.90;;;;;;5139687;27;19932;-49
2022/01/14 09:34:18;;;;;;;;;;;19.80;40.90;;;;;;5107138;27;20648;-45
2022/01/14 09:36:46;;;;;;;;;;;19.80;41.00;;;;;;5126049;27;20283;-43
2022/01/14 09:39:12;;;;;;;;;;;19.80;41.00;;;;;;5107036;27;19923;-44
2022/01/14 09:41:39;;;;;;;;;;;19.80;41.10;;;;;;5110464;27;19945;-43
2022/01/14 09:44:07;;;;;;;;;;;19.90;41.20;;;;;;5104251;27;19931;-50
2022/01/14 09:46:35;;;;;;;;;;;19.90;41.20;;;;;;5108948;27;19923;-46
2022/01/14 09:49:02;;;;;;;;;;;19.90;41.20;;;;;;5109910;27;19931;-50
2022/01/14 09:51:29;;;;;;;;;;;19.90;41.20;;;;;;5101909;28;20346;-46
2022/01/14 09:53:55;;;;;;;;;;;19.90;41.20;;;;;;5106900;27;20018;-44
2022/01/14 09:56:22;;;;;;;;;;;19.90;41.20;;;;;;5100656;27;19931;-48
2022/01/14 09:58:49;;;;;;;;;;;19.90;41.20;;;;;;5107772;27;19919;-46
2022/01/14 10:01:17;;;;;;;;;;;19.90;41.30;;;;;;5108842;27;19924;-45
2022/01/14 10:03:49;;;;;;;;;;;20.00;41.40;;;;;;5126584;27;19931;-46
2022/01/14 10:06:31;;;;;;;;;;;19.90;41.40;;;;;;5118275;27;20536;-47
2022/01/14 10:09:03;;;;;;;;;;;20.00;41.40;;;;;;5110512;27;19930;-46
2022/01/14 10:11:30;;;;;;;;;;;20.00;41.50;;;;;;5126339;27;19927;-44
2022/01/14 10:13:59;;;;;;;;;;;20.00;41.50;;;;;;5098228;27;20019;-48
2022/01/14 10:16:27;;;;;;;;;;;20.00;41.50;;;;;;5098683;27;19945;-44
2022/01/14 10:18:55;;;;;;;;;;;20.00;41.60;;;;;;5104364;27;19947;-45
2022/01/14 10:21:24;;;;;;;;;;;20.00;41.60;;;;;;5117975;27;19938;-45
2022/01/14 10:23:52;;;;;;;;;;;20.00;41.60;;;;;;5100291;27;19954;-45
2022/01/14 10:26:22;;;;;;;;;;;20.00;41.60;;;;;;5097695;27;19968;-49
2022/01/14 10:28:58;;;;;;;;;;;20.00;41.60;;;;;;5104562;27;20291;-47
2022/01/14 10:31:30;;;;;;;;;;;20.10;41.70;;;;;;5103239;27;19923;-46
2022/01/14 10:34:08;;;;;;;;;;;20.10;41.70;;;;;;5126653;27;20539;-49
2022/01/14 10:36:36;;;;;;;;;;;20.10;41.70;;;;;;5111376;27;19935;-50
2022/01/14 10:39:17;;;;;;;;;;;20.10;41.70;;;;;;5108102;27;19920;-47
2022/01/14 10:41:44;;;;;;;;;;;20.10;41.80;;;;;;5109820;27;20502;-47
2022/01/14 10:44:22;;;;;;;;;;;20.10;41.80;;;;;;5117212;27;19931;-47
2022/01/14 10:46:49;;;;;;;;;;;20.10;41.80;;;;;;5106863;27;20064;-45
2022/01/14 10:49:31;;;;;;;;;;;20.10;41.80;;;;;;5122490;27;19923;-46
2022/01/14 10:52:11;;;;;;;;;;;20.10;41.90;;;;;;5123397;28;19931;-46
2022/01/14 10:54:38;;;;;;;;;;;20.10;41.90;;;;;;5119791;28;19923;-43
2022/01/14 10:57:11;;;;;;;;;;;20.10;41.80;;;;;;5102995;28;20314;-48
2022/01/14 10:59:38;;;;;;;;;;;20.10;41.80;;;;;;5119874;27;19931;-47
2022/01/14 11:02:06;;;;;;;;;;;20.10;41.90;;;;;;5127800;27;19930;-48
2022/01/14 11:04:33;;;;;;;;;;;20.10;41.90;;;;;;5102330;28;19972;-47
2022/01/14 11:07:00;;;;;;;;;;;20.10;41.90;;;;;;5097016;28;19923;-49
2022/01/14 11:09:32;;;;;;;;;;;20.20;42.00;;;;;;5103013;28;20041;-49
2022/01/14 11:11:59;;;;;;;;;;;20.10;41.90;;;;;;5123706;27;19927;-42
2022/01/14 11:14:26;;;;;;;;;;;20.10;41.90;;;;;;5125708;28;20310;-45
2022/01/14 11:16:53;;;;;;;;;;;20.20;42.10;;;;;;5125813;28;19928;-43
2022/01/14 11:19:24;;;;;;;;;;;20.20;42.10;;;;;;5106092;28;19923;-44
2022/01/14 11:24:39;;;;;;;;;;;20.20;42.10;;;;;;5076134;28;19924;-47
2022/01/14 11:27:06;;;;;;;;;;;20.20;42.10;;;;;;5107287;28;20020;-45
2022/01/14 11:29:34;;;;;;;;;;;20.20;42.10;;;;;;5107391;28;20055;-43
2022/01/14 11:32:03;;;;;;;;;;;20.20;42.10;;;;;;5106057;28;19923;-45
2022/01/14 11:34:33;;;;;;;;;;;20.20;42.10;;;;;;5103742;28;19931;-48
2022/01/14 11:37:00;;;;;;;;;;;20.20;42.10;;;;;;5104249;28;20006;-44
2022/01/14 11:39:27;;;;;;;;;;;20.20;42.10;;;;;;5100471;27;20451;-48
2022/01/14 11:41:57;;;;;;;;;;;20.20;42.10;;;;;;5126406;27;19927;-49
2022/01/14 11:44:44;;;;;;;;;;;20.20;42.20;;;;;;5125184;27;19920;-50
2022/01/14 11:47:19;;;;;;;;;;;20.20;42.20;;;;;;5106164;27;19968;-45
2022/01/14 11:49:46;;;;;;;;;;;20.20;42.20;;;;;;5108588;27;19939;-44
2022/01/14 11:52:13;;;;;;;;;;;20.20;42.20;;;;;;5117998;27;19931;-50
2022/01/14 11:54:42;;;;;;;;;;;20.20;42.20;;;;;;5109847;27;19939;-44
2022/01/14 11:57:10;;;;;;;;;;;20.20;42.20;;;;;;5122425;27;19930;-44
2022/01/14 11:59:41;;;;;;;;;;;20.20;42.20;;;;;;5109604;27;19946;-46
2022/01/14 12:02:26;;;;;;;;;;;20.20;42.20;;;;;;5129845;27;19996;-48
2022/01/14 12:05:10;;;;;;;;;;;20.20;42.20;;;;;;5136268;27;19928;-50
2022/01/14 12:07:55;;;;;;;;;;;20.20;42.20;;;;;;5110035;27;19939;-43
2022/01/14 12:10:28;;;;;;;;;;;20.20;42.20;;;;;;5107453;27;19985;-49
2022/01/14 12:13:01;;;;;;;;;;;20.20;42.20;;;;;;5119325;27;19927;-49
2022/01/14 12:15:46;;;;;;;;;;;20.20;42.20;;;;;;5121189;27;19924;-48
2022/01/14 12:18:13;;;;;;;;;;;20.30;42.30;;;;;;5120920;27;20273;-46
2022/01/14 12:20:48;;;;;;;;;;;20.30;42.30;;;;;;5132458;27;19932;-45
2022/01/14 12:23:18;;;;;;;;;;;20.30;42.30;;;;;;5102920;27;19924;-49
2022/01/14 12:25:45;;;;;;;;;;;20.20;42.20;;;;;;5101729;27;19928;-49
2022/01/14 12:28:20;;;;;;;;;;;20.30;42.30;;;;;;5106078;27;20358;-50
2022/01/14 12:30:56;;;;;;;;;;;20.30;42.30;;;;;;5105261;27;19931;-48
2022/01/14 12:33:38;;;;;;;;;;;20.30;42.30;;;;;;5108555;27;19934;-45
2022/01/14 12:36:08;;;;;;;;;;;20.30;42.30;;;;;;5106957;27;20383;-51
2022/01/14 12:38:35;;;;;;;;;;;20.30;42.30;;;;;;5123423;27;19973;-49
2022/01/14 12:41:02;;;;;;;;;;;20.30;42.30;;;;;;5107535;27;20399;-48
2022/01/14 12:43:31;;;;;;;;;;;20.30;42.90;;;;;;5106271;27;20333;-45
2022/01/14 12:46:11;;;;;;;;;;;20.30;42.40;;;;;;5108017;27;19945;-47
2022/01/14 12:51:22;;;;;;;;;;;20.30;42.40;;;;;;5092484;27;20323;-49
2022/01/14 12:53:56;;;;;;;;;;;20.30;42.40;;;;;;5106478;27;19965;-44
2022/01/14 12:56:23;;;;;;;;;;;20.30;42.40;;;;;;5101481;27;20621;-50
2022/01/14 12:58:52;;;;;;;;;;;20.30;42.50;;;;;;5100431;27;20010;-50
2022/01/14 13:01:19;;;;;;;;;;;20.30;42.50;;;;;;5104170;27;20374;-45
2022/01/14 13:03:45;;;;;;;;;;;20.30;42.50;;;;;;5107851;27;19939;-46
2022/01/14 13:06:12;;;;;;;;;;;20.30;42.50;;;;;;5106283;27;19923;-45
2022/01/14 13:08:39;;;;;;;;;;;20.30;42.50;;;;;;5108312;27;19947;-48
2022/01/14 13:11:06;;;;;;;;;;;20.30;42.50;;;;;;5106761;27;20406;-50
2022/01/14 13:13:33;;;;;;;;;;;20.30;42.50;;;;;;5107596;27;20239;-44
2022/01/14 13:16:15;;;;;;;;;;;20.30;42.60;;;;;;5138240;27;19935;-51
2022/01/14 13:18:45;;;;;;;;;;;20.30;42.50;;;;;;5121917;27;19923;-47
2022/01/14 13:21:12;;;;;;;;;;;20.30;42.60;;;;;;5099244;27;19957;-49
2022/01/14 13:23:39;;;;;;;;;;;20.30;42.60;;;;;;5130565;27;19945;-47
2022/01/14 13:26:09;;;;;;;;;;;20.30;42.60;;;;;;5097519;27;19931;-45
2022/01/14 13:28:36;;;;;;;;;;;20.30;42.70;;;;;;5114069;27;19923;-48
2022/01/14 13:31:06;;;;;;;;;;;20.30;42.70;;;;;;5104756;27;20005;-46
2022/01/14 13:33:33;;;;;;;;;;;20.30;42.70;;;;;;5118811;27;20010;-46
2022/01/14 13:36:00;;;;;;;;;;;20.40;42.80;;;;;;5141358;27;20452;-43
2022/01/14 13:38:27;;;;;;;;;;;20.30;42.70;;;;;;5100195;27;19927;-44
2022/01/14 13:40:55;;;;;;;;;;;20.40;42.80;;;;;;5133499;27;19927;-47
2022/01/14 13:43:22;;;;;;;;;;;20.40;42.90;;;;;;5128936;27;19930;-43
2022/01/14 13:45:49;;;;;;;;;;;20.40;42.90;;;;;;5107173;27;19923;-44
2022/01/14 13:48:22;;;;;;;;;;;20.40;42.80;;;;;;5097183;27;20485;-47
2022/01/14 13:50:50;;;;;;;;;;;20.40;42.90;;;;;;5108178;27;19951;-47
2022/01/14 13:53:19;;;;;;;;;;;20.40;42.90;;;;;;5107552;27;19954;-43
2022/01/14 13:55:48;;;;;;;;;;;20.40;42.90;;;;;;5120938;27;20096;-49
2022/01/14 13:58:15;;;;;;;;;;;20.40;42.90;;;;;;5104627;27;19928;-43
2022/01/14 14:00:43;;;;;;;;;;;20.40;42.90;;;;;;5100083;27;20014;-44
2022/01/14 14:03:13;;;;;;;;;;;20.40;42.90;;;;;;5139962;27;20013;-47
2022/01/14 14:05:45;;;;;;;;;;;20.40;42.90;;;;;;5102185;27;19939;-49
2022/01/14 14:08:19;;;;;;;;;;;20.40;42.90;;;;;;5111054;27;19923;-48
2022/01/14 14:16:44;;;;;;;;;;;20.40;42.90;;;;;;5101732;27;20381;-44
2022/01/14 14:19:11;;;;;;;;;;;20.40;43.00;;;;;;5104662;27;19962;-51
2022/01/14 14:21:44;;;;;;;;;;;20.40;43.00;;;;;;5105928;27;19951;-44
2022/01/14 14:24:12;;;;;;;;;;;20.40;43.00;;;;;;5107379;27;20284;-45
2022/01/14 14:26:42;;;;;;;;;;;20.40;43.00;;;;;;5104180;27;19959;-47
2022/01/14 14:29:23;;;;;;;;;;;20.40;43.00;;;;;;5098217;27;19939;-45
2022/01/14 14:31:49;;;;;;;;;;;20.40;43.00;;;;;;5098148;28;20369;-48
2022/01/14 14:34:16;;;;;;;;;;;20.40;43.00;;;;;;5097703;27;19946;-44
2022/01/14 14:36:45;;;;;;;;;;;20.40;43.00;;;;;;5130932;27;19945;-47
2022/01/14 14:39:13;;;;;;;;;;;20.50;43.10;;;;;;5122477;27;19931;-45
2022/01/14 14:41:40;;;;;;;;;;;20.40;43.10;;;;;;5098611;27;20353;-49
2022/01/14 14:44:07;;;;;;;;;;;20.40;43.00;;;;;;5100016;27;19976;-51
2022/01/14 14:46:35;;;;;;;;;;;20.40;43.10;;;;;;5099143;27;19923;-50
2022/01/14 14:49:02;;;;;;;;;;;20.40;43.10;;;;;;5100109;28;19964;-48
2022/01/14 14:51:29;;;;;;;;;;;20.40;43.10;;;;;;5103096;28;19962;-52
2022/01/14 14:53:59;;;;;;;;;;;20.50;43.10;;;;;;5103801;27;20034;-45